Time;durP1;ratioP1;P1;durP2;ratioP2;P2;SDS_P1;SDS_P2;PMS_P1;PMS_P2;Temp;Humidity;BMP_temperature;BMP_pressure;BME280_temperature;BME280_humidity;BME280_pressure;Samples;Min_cycle;Max_cycle;Signal;HPM_P1;HPM_P2
2022/06/11 00:00:44;;;;;;;17.05;4.18;;;16.60;99.90;;;;;;4998807;28;20196;-93
2022/06/11 00:03:11;;;;;;;13.25;3.35;;;16.50;99.90;;;;;;4997326;28;20208;-91
2022/06/11 00:05:38;;;;;;;16.25;4.25;;;16.50;99.90;;;;;;4988481;28;20207;-93
2022/06/11 00:08:06;;;;;;;16.67;4.05;;;16.40;99.90;;;;;;4978832;28;20232;-93
2022/06/11 00:10:33;;;;;;;16.73;4.35;;;16.40;99.90;;;;;;4997225;28;20306;-93
2022/06/11 00:13:00;;;;;;;16.00;3.85;;;16.40;99.90;;;;;;4997109;28;20231;-93
2022/06/11 00:15:27;;;;;;;21.27;3.92;;;16.40;99.90;;;;;;4998278;28;20235;-91
2022/06/11 00:17:57;;;;;;;17.50;4.93;;;16.40;99.90;;;;;;4998312;28;20222;-91
2022/06/11 00:20:25;;;;;;;13.37;4.00;;;16.30;99.90;;;;;;4999426;28;20196;-93
2022/06/11 00:22:52;;;;;;;19.00;5.18;;;16.30;99.90;;;;;;4999807;28;20578;-91
2022/06/11 00:25:20;;;;;;;16.27;5.05;;;16.30;99.90;;;;;;4998212;28;20219;-89
2022/06/11 00:27:48;;;;;;;19.45;5.55;;;16.30;99.90;;;;;;4998195;28;20251;-90
2022/06/11 00:30:17;;;;;;;18.60;5.57;;;16.20;99.90;;;;;;4995559;28;20337;-90
2022/06/11 00:32:44;;;;;;;17.02;4.72;;;16.20;99.90;;;;;;4996061;28;20212;-93
2022/06/11 00:35:14;;;;;;;16.40;4.35;;;16.20;99.90;;;;;;4995512;28;20526;-91
2022/06/11 00:37:41;;;;;;;20.77;5.03;;;16.20;99.90;;;;;;4996685;28;20282;-94
2022/06/11 00:40:11;;;;;;;18.10;5.68;;;16.20;99.90;;;;;;4997470;28;20234;-94
2022/06/11 00:42:38;;;;;;;14.30;4.65;;;16.20;99.90;;;;;;4977148;28;20212;-94
2022/06/11 00:45:27;;;;;;;17.23;5.03;;;16.20;99.90;;;;;;4977927;28;20239;-92
2022/06/11 00:48:00;;;;;;;21.80;4.95;;;16.20;99.90;;;;;;4971450;28;20594;-92
2022/06/11 00:50:37;;;;;;;17.52;5.25;;;16.20;99.90;;;;;;4976332;28;20287;-91
2022/06/11 00:53:11;;;;;;;17.63;5.10;;;16.20;99.90;;;;;;4979577;28;20239;-94
2022/06/11 00:55:39;;;;;;;17.65;5.25;;;16.20;99.90;;;;;;4979086;28;20204;-91
2022/06/11 00:58:10;;;;;;;16.33;4.87;;;16.20;99.90;;;;;;4994625;28;20212;-94
2022/06/11 01:00:41;;;;;;;17.45;5.50;;;16.10;99.90;;;;;;4998222;28;20214;-91
2022/06/11 01:03:08;;;;;;;17.73;4.60;;;16.00;99.90;;;;;;4999563;28;20290;-92
2022/06/11 01:05:44;;;;;;;15.02;3.90;;;16.10;99.90;;;;;;4991792;28;20287;-94
2022/06/11 01:08:40;;;;;;;17.63;5.45;;;16.00;99.90;;;;;;4980293;28;20251;-93
2022/06/11 01:11:48;;;;;;;16.98;4.65;;;16.00;99.90;;;;;;4977308;28;20261;-93
2022/06/11 01:14:33;;;;;;;17.65;5.13;;;15.90;99.90;;;;;;4993767;28;20235;-92
2022/06/11 01:17:10;;;;;;;18.77;4.70;;;15.90;99.90;;;;;;4997078;28;20247;-92
2022/06/11 01:20:02;;;;;;;14.63;4.37;;;15.90;99.90;;;;;;4996273;28;20275;-94
2022/06/11 01:22:50;;;;;;;24.38;5.47;;;15.90;99.90;;;;;;4996154;28;20212;-95
2022/06/11 01:25:29;;;;;;;20.73;5.00;;;15.80;99.90;;;;;;4994404;28;20204;-92
2022/06/11 01:28:22;;;;;;;16.67;5.20;;;15.80;99.90;;;;;;4976695;28;20204;-94
2022/06/11 01:30:56;;;;;;;17.70;5.13;;;15.80;99.90;;;;;;4980341;28;20204;-94
2022/06/11 01:33:29;;;;;;;22.23;5.03;;;15.80;99.90;;;;;;4992259;28;20204;-93
2022/06/11 01:36:06;;;;;;;21.63;5.57;;;15.80;99.90;;;;;;4995617;28;20892;-95
2022/06/11 01:38:38;;;;;;;18.98;4.97;;;15.70;99.90;;;;;;4995660;28;20614;-94
2022/06/11 01:41:25;;;;;;;17.10;5.03;;;15.70;99.90;;;;;;4995156;28;20211;-95
2022/06/11 01:43:56;;;;;;;17.08;5.10;;;15.70;99.90;;;;;;4995555;28;20291;-93
2022/06/11 01:46:27;;;;;;;18.38;5.45;;;15.70;99.90;;;;;;4976786;28;20295;-95
2022/06/11 01:48:59;;;;;;;19.93;4.80;;;15.70;99.90;;;;;;4985898;28;20255;-93
2022/06/11 01:51:34;;;;;;;14.32;5.18;;;15.70;99.90;;;;;;4995465;28;20315;-94
2022/06/11 01:54:20;;;;;;;18.83;5.10;;;15.70;99.90;;;;;;4994417;28;20322;-93
2022/06/11 01:57:19;;;;;;;20.63;6.40;;;15.60;99.90;;;;;;4976771;28;20205;-95
2022/06/11 02:00:05;;;;;;;18.83;6.40;;;15.60;99.90;;;;;;4991650;28;20235;-92
2022/06/11 02:02:48;;;;;;;19.35;5.88;;;15.60;99.90;;;;;;4995487;28;20196;-93
2022/06/11 02:05:20;;;;;;;14.88;4.72;;;15.60;99.90;;;;;;4992827;28;20230;-93
2022/06/11 02:07:56;;;;;;;19.55;4.80;;;15.60;99.90;;;;;;4993599;28;20303;-92
2022/06/11 02:10:29;;;;;;;20.23;5.37;;;15.50;99.90;;;;;;4994043;28;20285;-92
2022/06/11 02:13:00;;;;;;;17.73;5.73;;;15.50;99.90;;;;;;4993823;28;20623;-88
2022/06/11 02:15:32;;;;;;;30.20;6.83;;;15.50;99.90;;;;;;4980376;28;20307;-91
2022/06/11 02:18:05;;;;;;;18.27;4.93;;;15.50;99.90;;;;;;4989326;28;20227;-89
2022/06/11 02:20:38;;;;;;;19.10;5.27;;;15.50;99.90;;;;;;4992608;28;20219;-95
2022/06/11 02:23:14;;;;;;;26.10;5.50;;;15.50;99.90;;;;;;4993849;28;20234;-94
2022/06/11 02:25:47;;;;;;;22.25;5.50;;;15.50;99.90;;;;;;4987874;28;20855;-90
2022/06/11 02:28:20;;;;;;;20.10;5.70;;;15.50;99.90;;;;;;4974306;28;20243;-93
2022/06/11 02:30:50;;;;;;;24.90;6.27;;;15.50;99.90;;;;;;4990631;28;20219;-90
2022/06/11 02:33:21;;;;;;;27.50;6.17;;;15.40;99.90;;;;;;4993378;28;20243;-94
2022/06/11 02:35:56;;;;;;;23.40;6.63;;;15.40;99.90;;;;;;4993638;28;20287;-93
2022/06/11 02:38:26;;;;;;;26.43;7.13;;;15.40;99.90;;;;;;4993993;28;20237;-88
2022/06/11 02:40:56;;;;;;;21.67;6.47;;;15.40;99.90;;;;;;4994449;28;20230;-95
2022/06/11 02:43:23;;;;;;;29.20;6.33;;;15.30;99.90;;;;;;4993448;28;20254;-93
2022/06/11 02:45:51;;;;;;;23.33;6.22;;;15.30;99.90;;;;;;4984303;28;20292;-94
2022/06/11 02:48:20;;;;;;;22.27;6.87;;;15.30;99.90;;;;;;4974433;28;20693;-91
2022/06/11 02:50:48;;;;;;;26.02;6.35;;;15.30;99.90;;;;;;4975244;28;20298;-93
2022/06/11 02:53:17;;;;;;;22.40;6.00;;;15.30;99.90;;;;;;4983007;28;20250;-91
2022/06/11 02:55:45;;;;;;;25.63;6.35;;;15.30;99.90;;;;;;4992697;28;20204;-91
2022/06/11 02:58:13;;;;;;;27.58;7.32;;;15.20;99.90;;;;;;4993090;28;20211;-92
2022/06/11 03:00:42;;;;;;;23.10;6.80;;;15.30;99.90;;;;;;4994150;28;20220;-89
2022/06/11 03:03:09;;;;;;;19.73;6.45;;;15.20;99.90;;;;;;4993413;28;20282;-94
2022/06/11 03:05:38;;;;;;;22.43;7.20;;;15.30;99.90;;;;;;4993629;28;20199;-93
2022/06/11 03:08:07;;;;;;;25.73;7.80;;;15.20;99.90;;;;;;4989239;28;21270;-92
2022/06/11 03:10:35;;;;;;;31.98;7.63;;;15.20;99.90;;;;;;4991015;28;20286;-88
2022/06/11 03:13:02;;;;;;;27.30;8.05;;;15.20;99.90;;;;;;4993920;28;20227;-90
2022/06/11 03:15:30;;;;;;;21.25;7.43;;;15.20;99.90;;;;;;4994213;28;20208;-91
2022/06/11 03:17:58;;;;;;;20.88;5.85;;;15.30;99.90;;;;;;4993190;28;20211;-90
2022/06/11 03:20:27;;;;;;;23.38;7.20;;;15.30;99.90;;;;;;4991338;28;20294;-92
2022/06/11 03:22:57;;;;;;;29.05;6.97;;;15.30;99.90;;;;;;4993813;28;20214;-92
2022/06/11 03:25:24;;;;;;;23.10;6.57;;;15.30;99.90;;;;;;4978308;28;20208;-92
2022/06/11 03:27:52;;;;;;;27.20;7.32;;;15.30;99.90;;;;;;4973907;28;20208;-90
2022/06/11 03:30:19;;;;;;;32.78;7.75;;;15.30;99.90;;;;;;4973175;28;20320;-95
2022/06/11 03:32:46;;;;;;;32.17;7.07;;;15.30;99.90;;;;;;4985278;28;20298;-93
2022/06/11 03:35:13;;;;;;;32.00;7.47;;;15.30;99.90;;;;;;4993093;28;20208;-89
2022/06/11 03:37:40;;;;;;;23.83;6.68;;;15.30;99.90;;;;;;4993503;28;20208;-92
2022/06/11 03:40:12;;;;;;;22.80;6.78;;;15.40;99.90;;;;;;4992786;28;20210;-91
2022/06/11 03:42:39;;;;;;;32.00;7.32;;;15.40;99.90;;;;;;4993366;28;20200;-90
2022/06/11 03:45:08;;;;;;;33.70;7.40;;;15.40;99.90;;;;;;4994869;28;20717;-91
2022/06/11 03:47:38;;;;;;;24.20;6.28;;;15.40;99.90;;;;;;4995323;28;20411;-94
2022/06/11 03:50:07;;;;;;;31.58;6.97;;;15.50;99.90;;;;;;4994682;28;20224;-94
2022/06/11 03:52:34;;;;;;;25.75;6.45;;;15.40;99.90;;;;;;4995264;28;20632;-92
2022/06/11 03:55:01;;;;;;;26.48;7.50;;;15.50;99.90;;;;;;4995973;28;20218;-90
2022/06/11 03:57:29;;;;;;;28.65;7.43;;;15.50;99.90;;;;;;4994686;28;20216;-90
2022/06/11 03:59:57;;;;;;;22.98;6.70;;;15.60;99.90;;;;;;4995050;28;20488;-92
2022/06/11 04:02:24;;;;;;;26.48;6.93;;;15.60;99.90;;;;;;4995333;28;20283;-94
2022/06/11 04:04:51;;;;;;;29.55;7.40;;;15.60;99.90;;;;;;4995577;28;20226;-95
2022/06/11 04:07:18;;;;;;;23.95;6.22;;;15.70;99.90;;;;;;4993826;28;20280;-92
2022/06/11 04:09:46;;;;;;;28.15;6.03;;;15.70;99.90;;;;;;4993759;28;20263;-94
2022/06/11 04:12:15;;;;;;;25.02;7.45;;;15.70;99.90;;;;;;4992976;28;20212;-92
2022/06/11 04:14:46;;;;;;;24.00;6.75;;;15.70;99.90;;;;;;5004256;28;20192;-95
2022/06/11 04:17:16;;;;;;;27.42;6.32;;;15.80;99.90;;;;;;5010510;28;20207;-94
2022/06/11 04:19:45;;;;;;;31.02;7.38;;;15.80;99.90;;;;;;4985065;28;20303;-90
2022/06/11 04:22:13;;;;;;;25.33;5.82;;;15.90;99.90;;;;;;4976495;28;20279;-89
2022/06/11 04:24:40;;;;;;;26.67;7.15;;;16.00;99.90;;;;;;4983216;28;20203;-87
2022/06/11 04:27:09;;;;;;;28.70;7.15;;;16.00;99.90;;;;;;4994109;28;20952;-94
2022/06/11 04:29:40;;;;;;;27.58;7.28;;;16.10;99.90;;;;;;4994110;28;20255;-93
2022/06/11 04:32:12;;;;;;;29.50;7.38;;;16.10;99.90;;;;;;4991910;28;20219;-93
2022/06/11 04:34:39;;;;;;;26.08;7.13;;;16.20;99.90;;;;;;4989817;28;20285;-90
2022/06/11 04:37:13;;;;;;;33.58;8.88;;;16.20;99.90;;;;;;4992532;28;20212;-93
2022/06/11 04:39:41;;;;;;;32.67;8.30;;;16.20;99.90;;;;;;4993713;28;20200;-92
2022/06/11 04:42:09;;;;;;;30.50;9.30;;;16.20;99.90;;;;;;4992742;28;20196;-91
2022/06/11 04:44:37;;;;;;;27.83;7.47;;;16.20;99.90;;;;;;4992433;28;20299;-90
2022/06/11 04:47:05;;;;;;;31.88;9.13;;;16.20;99.90;;;;;;4996025;28;20208;-93
2022/06/11 04:49:34;;;;;;;40.45;10.27;;;16.20;99.90;;;;;;4986063;28;20256;-94
2022/06/11 04:52:01;;;;;;;32.22;8.27;;;16.30;99.90;;;;;;4977690;28;20273;-93
2022/06/11 04:54:28;;;;;;;25.75;8.10;;;16.30;99.90;;;;;;4978033;28;20280;-92
2022/06/11 04:56:55;;;;;;;33.20;8.80;;;16.50;99.90;;;;;;4977179;28;20308;-91
2022/06/11 04:59:23;;;;;;;31.00;8.05;;;16.70;99.90;;;;;;4992988;28;20210;-92
2022/06/11 05:01:50;;;;;;;33.65;8.77;;;17.00;99.90;;;;;;4995381;28;20212;-91
2022/06/11 05:04:17;;;;;;;23.58;7.22;;;17.30;99.90;;;;;;4996197;28;20239;-92
2022/06/11 05:06:48;;;;;;;31.58;8.55;;;17.60;99.90;;;;;;4996646;28;20299;-93
2022/06/11 05:09:17;;;;;;;25.65;6.63;;;17.90;99.90;;;;;;4998158;28;20215;-91
2022/06/11 05:11:45;;;;;;;22.92;6.82;;;18.20;99.90;;;;;;4998851;28;20226;-91
2022/06/11 05:14:12;;;;;;;29.83;7.32;;;18.30;99.90;;;;;;4999046;28;20263;-87
2022/06/11 05:16:42;;;;;;;25.75;6.93;;;18.50;99.90;;;;;;4996244;28;20204;-90
2022/06/11 05:19:10;;;;;;;22.92;7.60;;;18.60;99.90;;;;;;4993811;28;20212;-94
2022/06/11 05:21:38;;;;;;;25.40;8.20;;;18.60;99.90;;;;;;4986343;28;20319;-93
2022/06/11 05:24:08;;;;;;;26.38;7.00;;;18.80;99.90;;;;;;4975187;28;20267;-94
2022/06/11 05:26:39;;;;;;;22.75;7.70;;;19.00;99.90;;;;;;4976813;28;20205;-90
2022/06/11 05:29:06;;;;;;;27.38;6.70;;;19.30;99.90;;;;;;4976386;28;20201;-90
2022/06/11 05:31:33;;;;;;;21.00;6.70;;;19.50;99.90;;;;;;4991135;28;20975;-90
2022/06/11 05:34:00;;;;;;;26.60;7.35;;;19.50;99.90;;;;;;4994863;28;20214;-90
2022/06/11 05:36:27;;;;;;;25.15;7.50;;;19.50;99.90;;;;;;4994065;28;20316;-91
2022/06/11 05:38:54;;;;;;;27.15;8.10;;;19.70;99.90;;;;;;4994558;28;20231;-91
2022/06/11 05:41:23;;;;;;;24.95;7.93;;;19.90;99.90;;;;;;4994223;28;20698;-92
2022/06/11 05:43:50;;;;;;;29.60;7.80;;;20.00;99.90;;;;;;4994432;28;20290;-88
2022/06/11 05:46:21;;;;;;;26.20;8.50;;;20.30;99.90;;;;;;4995018;28;20810;-89
2022/06/11 05:48:53;;;;;;;26.50;8.00;;;20.50;99.90;;;;;;4994316;28;20577;-92
2022/06/11 05:51:24;;;;;;;23.33;6.82;;;20.70;99.90;;;;;;4994401;28;20232;-90
2022/06/11 05:53:54;;;;;;;22.73;7.30;;;21.00;99.90;;;;;;4993926;28;20644;-94
2022/06/11 05:56:23;;;;;;;26.58;8.52;;;21.20;99.90;;;;;;4994202;28;20208;-92
2022/06/11 05:58:52;;;;;;;24.92;7.88;;;21.40;99.90;;;;;;4994771;28;20223;-92
2022/06/11 06:01:22;;;;;;;22.95;6.82;;;21.50;99.90;;;;;;4993715;28;20591;-88
2022/06/11 06:03:49;;;;;;;21.60;7.47;;;21.70;99.90;;;;;;4994627;28;20210;-91
2022/06/11 06:06:16;;;;;;;21.92;6.95;;;21.90;99.90;;;;;;4994756;28;20238;-91
2022/06/11 06:08:44;;;;;;;21.23;7.10;;;22.30;99.90;;;;;;4995236;28;20239;-94
2022/06/11 06:11:11;;;;;;;25.00;7.88;;;22.40;99.90;;;;;;4994802;28;20235;-90
2022/06/11 06:13:49;;;;;;;22.35;6.80;;;22.70;99.90;;;;;;4987522;23;20299;-90
2022/06/11 06:16:17;;;;;;;20.88;6.97;;;22.80;99.90;;;;;;4970457;28;20237;-93
2022/06/11 06:18:44;;;;;;;21.13;6.97;;;23.00;99.90;;;;;;4956238;29;20297;-92
2022/06/11 06:21:11;;;;;;;17.88;6.72;;;23.10;99.90;;;;;;4956030;29;20280;-93
2022/06/11 06:23:45;;;;;;;19.33;6.80;;;23.20;99.90;;;;;;4965612;28;20295;-91
2022/06/11 06:26:12;;;;;;;19.38;6.57;;;23.50;99.90;;;;;;4969748;28;20299;-93
2022/06/11 06:28:41;;;;;;;18.48;6.28;;;23.50;99.90;;;;;;4966500;28;20233;-90
2022/06/11 06:31:09;;;;;;;20.20;6.60;;;23.50;99.90;;;;;;4954988;28;20235;-88
2022/06/11 06:33:36;;;;;;;22.38;6.95;;;23.60;99.90;;;;;;4954725;28;20217;-89
2022/06/11 06:36:06;;;;;;;18.45;6.95;;;23.80;99.90;;;;;;4954620;28;20602;-91
2022/06/11 06:38:34;;;;;;;20.20;6.10;;;23.80;99.90;;;;;;4954466;29;20499;-94
2022/06/11 06:41:01;;;;;;;17.33;5.80;;;23.70;99.90;;;;;;4954150;29;20280;-90
2022/06/11 06:43:28;;;;;;;18.25;5.85;;;23.90;99.90;;;;;;4972166;28;20205;-92
2022/06/11 06:46:00;;;;;;;16.60;6.00;;;23.90;99.90;;;;;;4973136;28;20264;-91
2022/06/11 06:48:27;;;;;;;17.95;5.47;;;24.20;99.90;;;;;;4973983;28;20433;-92
2022/06/11 06:50:54;;;;;;;17.42;5.85;;;24.40;99.90;;;;;;4974877;28;20225;-93
2022/06/11 06:53:21;;;;;;;17.67;5.45;;;24.60;99.90;;;;;;4973286;28;20212;-91
2022/06/11 06:55:50;;;;;;;18.15;6.03;;;24.70;99.90;;;;;;4975498;28;20754;-94
2022/06/11 06:58:17;;;;;;;17.45;6.10;;;24.80;99.90;;;;;;4975697;28;20217;-92
2022/06/11 07:00:45;;;;;;;19.98;6.10;;;24.80;99.90;;;;;;4961621;28;20236;-91
2022/06/11 07:03:15;;;;;;;19.33;6.15;;;24.80;99.90;;;;;;4953212;28;20208;-95
2022/06/11 07:05:43;;;;;;;23.55;6.32;;;24.80;99.90;;;;;;4942068;28;20220;-94
2022/06/11 07:08:13;;;;;;;17.17;6.03;;;24.90;99.90;;;;;;4954948;28;20198;-94
2022/06/11 07:10:42;;;;;;;12.90;4.72;;;25.10;99.90;;;;;;4954873;29;20225;-93
2022/06/11 07:13:09;;;;;;;15.27;5.15;;;25.00;99.90;;;;;;4954048;28;20237;-94
2022/06/11 07:15:37;;;;;;;13.82;5.47;;;25.10;99.90;;;;;;4954789;29;20205;-91
2022/06/11 07:18:11;;;;;;;16.13;5.47;;;25.30;99.90;;;;;;4964709;28;20239;-90
2022/06/11 07:20:46;;;;;;;17.60;4.85;;;25.50;99.90;;;;;;4972654;28;20279;-94
2022/06/11 07:23:17;;;;;;;16.42;5.35;;;25.70;99.90;;;;;;4973344;28;20204;-95
2022/06/11 07:25:46;;;;;;;19.20;5.80;;;25.70;99.90;;;;;;4974076;28;20284;-94
2022/06/11 07:28:20;;;;;;;18.75;5.78;;;25.60;99.90;;;;;;4973006;28;20223;-92
2022/06/11 07:30:47;;;;;;;16.98;5.30;;;25.70;99.90;;;;;;4971900;28;20236;-91
2022/06/11 07:33:17;;;;;;;11.75;4.18;;;25.80;99.90;;;;;;4974704;28;20207;-91
2022/06/11 07:35:49;;;;;;;13.70;4.45;;;25.80;99.90;;;;;;4974683;28;20669;-92
2022/06/11 07:38:18;;;;;;;16.73;4.68;;;25.50;99.90;;;;;;4970657;28;20247;-91
2022/06/11 07:40:45;;;;;;;16.38;4.57;;;25.10;99.90;;;;;;4960324;28;20211;-90
2022/06/11 07:43:12;;;;;;;11.88;5.00;;;24.90;99.90;;;;;;4973451;28;20209;-93
2022/06/11 07:45:41;;;;;;;16.05;4.45;;;25.00;99.90;;;;;;4973191;28;20208;-91
2022/06/11 07:48:11;;;;;;;12.93;4.10;;;25.30;99.90;;;;;;4966483;28;20296;-91
2022/06/11 07:50:41;;;;;;;16.40;4.93;;;25.40;99.90;;;;;;4954700;28;20888;-90
2022/06/11 07:53:11;;;;;;;15.32;5.13;;;25.20;99.90;;;;;;4969886;28;20213;-93
2022/06/11 07:55:40;;;;;;;17.10;5.07;;;25.10;99.90;;;;;;4974885;28;20217;-92
2022/06/11 07:58:10;;;;;;;17.83;5.22;;;25.20;99.90;;;;;;4974365;28;20240;-93
2022/06/11 08:00:39;;;;;;;14.45;5.30;;;25.50;99.90;;;;;;4973512;28;20288;-91
2022/06/11 08:03:06;;;;;;;13.80;5.15;;;25.60;99.90;;;;;;4954521;28;20223;-87
2022/06/11 08:05:36;;;;;;;10.90;4.38;;;25.70;99.90;;;;;;4951222;29;20289;-91
2022/06/11 08:08:05;;;;;;;12.80;4.55;;;25.60;99.90;;;;;;4955105;28;20771;-90
2022/06/11 08:10:36;;;;;;;16.88;4.57;;;25.50;99.90;;;;;;4955074;28;20232;-90
2022/06/11 08:13:04;;;;;;;13.98;5.20;;;25.80;99.90;;;;;;4961432;28;20244;-89
2022/06/11 08:15:31;;;;;;;12.98;4.85;;;25.90;99.90;;;;;;4973909;28;20200;-88
2022/06/11 08:17:58;;;;;;;14.00;4.22;;;26.10;99.90;;;;;;4973791;28;20216;-90
2022/06/11 08:20:28;;;;;;;13.30;4.90;;;26.30;99.90;;;;;;4962100;28;20594;-90
2022/06/11 08:22:55;;;;;;;11.43;4.32;;;26.30;99.90;;;;;;4977681;28;20205;-88
2022/06/11 08:25:23;;;;;;;13.77;4.93;;;26.30;99.90;;;;;;4959283;28;20223;-91
2022/06/11 08:27:52;;;;;;;13.05;4.80;;;26.40;99.90;;;;;;4958310;29;20602;-89
2022/06/11 08:30:21;;;;;;;14.27;4.00;;;26.70;99.90;;;;;;4958230;28;20225;-89
2022/06/11 08:32:48;;;;;;;13.23;4.07;;;26.70;99.90;;;;;;4960199;28;22125;-88
2022/06/11 08:35:18;;;;;;;14.35;4.60;;;26.80;99.90;;;;;;4976377;28;20284;-88
2022/06/11 08:37:45;;;;;;;14.00;3.88;;;26.80;99.90;;;;;;4975707;28;20220;-88
2022/06/11 08:40:18;;;;;;;14.20;4.90;;;26.80;99.90;;;;;;4975453;28;20219;-90
2022/06/11 08:42:48;;;;;;;11.60;3.90;;;26.60;99.90;;;;;;4956853;28;20229;-87
2022/06/11 08:45:21;;;;;;;11.38;3.92;;;26.50;99.90;;;;;;4972982;28;20212;-88
2022/06/11 08:47:51;;;;;;;11.45;4.32;;;26.30;99.90;;;;;;4973530;28;20212;-88
2022/06/11 08:50:26;;;;;;;13.93;4.30;;;26.50;99.90;;;;;;4971543;28;20242;-88
2022/06/11 08:52:53;;;;;;;12.90;4.00;;;26.30;99.90;;;;;;4973637;28;20474;-90
2022/06/11 08:55:21;;;;;;;13.40;4.40;;;26.30;99.90;;;;;;4972885;28;20629;-88
2022/06/11 08:58:02;;;;;;;14.15;3.83;;;26.50;99.90;;;;;;4964580;28;20205;-91
2022/06/11 09:00:40;;;;;;;11.98;4.20;;;26.70;99.90;;;;;;4955714;29;20209;-91
2022/06/11 09:03:28;;;;;;;15.05;5.38;;;26.80;99.90;;;;;;4954489;29;20216;-92
2022/06/11 09:06:18;;;;;;;15.38;3.60;;;27.00;99.90;;;;;;4955867;28;20484;-91
2022/06/11 09:08:57;;;;;;;19.45;5.40;;;27.10;99.90;;;;;;4958577;28;20320;-90
2022/06/11 09:11:49;;;;;;;17.33;4.63;;;27.20;99.90;;;;;;4973217;28;20235;-93
2022/06/11 09:14:54;;;;;;;13.95;4.53;;;27.30;99.90;;;;;;4973364;28;20600;-90
2022/06/11 09:17:56;;;;;;;17.95;6.10;;;27.40;99.90;;;;;;4968902;28;20270;-89
2022/06/11 09:20:32;;;;;;;14.98;4.75;;;27.20;99.90;;;;;;4937464;28;20219;-93
2022/06/11 09:23:25;;;;;;;15.52;5.13;;;27.10;99.90;;;;;;4954833;29;20205;-92
2022/06/11 09:26:06;;;;;;;15.93;5.15;;;27.00;99.90;;;;;;4955181;28;20288;-94
2022/06/11 09:28:41;;;;;;;17.30;5.32;;;27.10;99.90;;;;;;4955193;28;20217;-91
2022/06/11 09:31:16;;;;;;;22.52;6.13;;;27.20;99.90;;;;;;4956346;29;20225;-93
2022/06/11 09:33:52;;;;;;;20.52;6.13;;;27.40;99.90;;;;;;4956624;29;20205;-91
2022/06/11 09:36:26;;;;;;;15.10;4.88;;;27.40;99.90;;;;;;4960829;28;20295;-93
2022/06/11 09:39:09;;;;;;;16.88;5.30;;;27.40;99.90;;;;;;4978505;28;20219;-92
2022/06/11 09:41:46;;;;;;;16.15;4.97;;;27.30;99.90;;;;;;4975393;28;20525;-94
2022/06/11 09:44:29;;;;;;;14.57;4.75;;;27.40;99.90;;;;;;4975595;28;20204;-91
2022/06/11 09:47:02;;;;;;;24.90;5.50;;;27.40;99.90;;;;;;4974879;28;20216;-91
2022/06/11 09:49:39;;;;;;;16.33;5.25;;;27.20;99.90;;;;;;4964560;28;20681;-93
2022/06/11 09:52:21;;;;;;;17.77;6.03;;;27.30;99.90;;;;;;4955397;28;20249;-89
2022/06/11 09:54:53;;;;;;;17.95;5.60;;;27.10;99.90;;;;;;4955779;28;20212;-89
2022/06/11 09:57:33;;;;;;;19.02;5.10;;;27.20;99.90;;;;;;4955022;28;20280;-89
2022/06/11 10:00:06;;;;;;;13.98;4.68;;;27.20;99.90;;;;;;4955578;28;20205;-92
2022/06/11 10:02:40;;;;;;;16.85;5.78;;;27.30;99.90;;;;;;4955456;28;20205;-90
2022/06/11 10:05:18;;;;;;;16.63;5.15;;;27.40;99.90;;;;;;4955933;29;20229;-91
2022/06/11 10:07:53;;;;;;;15.35;5.55;;;27.60;99.90;;;;;;4966165;28;20212;-95
2022/06/11 10:10:24;;;;;;;16.60;5.13;;;27.70;99.90;;;;;;4975187;28;20231;-89
2022/06/11 10:12:56;;;;;;;18.00;5.35;;;27.80;99.90;;;;;;4974744;28;20623;-91
2022/06/11 10:15:26;;;;;;;13.57;4.68;;;27.70;99.90;;;;;;4975747;28;20223;-91
2022/06/11 10:18:00;;;;;;;17.52;4.68;;;27.70;99.90;;;;;;4976347;28;20248;-93
2022/06/11 10:20:33;;;;;;;12.88;4.07;;;27.40;99.90;;;;;;4975016;28;20207;-90
2022/06/11 10:23:06;;;;;;;16.92;5.05;;;27.10;99.90;;;;;;4975998;28;20596;-93
2022/06/11 10:25:36;;;;;;;22.05;5.18;;;27.10;99.90;;;;;;4964310;28;20281;-94
2022/06/11 10:28:11;;;;;;;12.85;5.10;;;27.00;99.90;;;;;;4956187;28;20272;-94
2022/06/11 10:30:46;;;;;;;17.88;4.95;;;27.00;99.90;;;;;;4956569;29;20223;-93
2022/06/11 10:33:19;;;;;;;15.65;4.82;;;27.20;99.90;;;;;;4956406;29;20205;-90
2022/06/11 10:35:52;;;;;;;16.38;5.13;;;27.30;99.90;;;;;;4973292;28;20212;-91
2022/06/11 10:38:40;;;;;;;16.98;5.13;;;27.40;99.90;;;;;;4975451;28;20207;-89
2022/06/11 10:41:12;;;;;;;18.02;5.15;;;27.40;99.90;;;;;;4987448;28;20215;-90
2022/06/11 10:43:45;;;;;;;17.98;5.47;;;27.30;99.90;;;;;;4985723;28;20197;-89
2022/06/11 10:46:12;;;;;;;13.02;4.80;;;27.10;99.90;;;;;;4953943;28;20279;-91
2022/06/11 10:48:40;;;;;;;10.82;4.10;;;27.30;99.90;;;;;;4956118;29;20618;-93
2022/06/11 10:51:16;;;;;;;26.17;6.03;;;27.50;99.90;;;;;;4961821;28;20320;-89
2022/06/11 10:53:54;;;;;;;11.77;3.95;;;27.40;99.90;;;;;;4964360;28;20217;-89
2022/06/11 10:56:27;;;;;;;17.17;4.93;;;27.30;99.90;;;;;;4957657;28;20209;-88
2022/06/11 10:58:59;;;;;;;15.95;5.10;;;27.20;99.90;;;;;;4974378;28;20232;-87
2022/06/11 11:01:33;;;;;;;17.50;4.80;;;27.30;99.90;;;;;;4964482;28;20267;-91
2022/06/11 11:04:24;;;;;;;18.92;5.15;;;27.60;99.90;;;;;;4953933;29;20194;-86
2022/06/11 11:07:09;;;;;;;13.65;4.43;;;27.70;99.90;;;;;;4954745;29;20280;-91
2022/06/11 11:09:36;;;;;;;17.92;5.43;;;27.60;99.90;;;;;;4954472;28;20204;-91
2022/06/11 11:12:06;;;;;;;16.73;5.28;;;27.70;99.90;;;;;;4973838;28;20342;-87
2022/06/11 11:14:38;;;;;;;17.17;5.05;;;27.90;99.90;;;;;;4964199;28;20213;-89
2022/06/11 11:17:14;;;;;;;17.38;4.70;;;27.70;99.90;;;;;;4953494;28;20208;-92
2022/06/11 11:19:44;;;;;;;18.10;4.82;;;27.70;99.90;;;;;;4953493;28;20227;-90
2022/06/11 11:22:19;;;;;;;19.08;4.72;;;27.80;99.90;;;;;;4950696;28;20212;-90
2022/06/11 11:24:50;;;;;;;14.15;4.57;;;27.80;99.90;;;;;;4950087;28;20216;-88
2022/06/11 11:27:20;;;;;;;15.75;4.53;;;27.60;99.90;;;;;;4951952;29;20627;-84
2022/06/11 11:29:51;;;;;;;13.18;4.50;;;27.60;99.90;;;;;;4951899;28;20682;-93
2022/06/11 11:32:37;;;;;;;13.43;4.55;;;27.50;99.90;;;;;;4951346;28;20232;-87
2022/06/11 11:35:16;;;;;;;19.83;5.38;;;27.60;99.90;;;;;;4971059;28;20250;-88
2022/06/11 11:37:47;;;;;;;15.07;4.75;;;27.60;99.90;;;;;;4960961;28;20209;-90
2022/06/11 11:40:25;;;;;;;17.75;4.60;;;27.80;99.90;;;;;;4952711;28;20216;-87
2022/06/11 11:42:57;;;;;;;19.52;5.30;;;27.90;99.90;;;;;;4954514;28;21025;-90
2022/06/11 11:45:26;;;;;;;20.33;5.07;;;27.90;99.90;;;;;;4954993;29;20190;-94
2022/06/11 11:48:00;;;;;;;20.88;5.22;;;27.80;99.90;;;;;;4956763;28;20219;-91
2022/06/11 11:50:31;;;;;;;17.77;4.80;;;27.90;99.90;;;;;;4954477;28;20273;-88
2022/06/11 11:53:05;;;;;;;15.98;5.00;;;27.90;99.90;;;;;;4955157;28;20255;-89
2022/06/11 11:55:34;;;;;;;19.25;5.30;;;27.80;99.90;;;;;;4954989;28;20207;-91
2022/06/11 11:58:06;;;;;;;21.15;5.57;;;27.70;99.90;;;;;;4975909;23;20291;-90
2022/06/11 12:00:42;;;;;;;18.25;5.50;;;27.50;99.90;;;;;;4916138;29;20218;-92
2022/06/11 12:03:21;;;;;;;18.17;5.07;;;27.60;99.90;;;;;;4912241;29;20210;-91
2022/06/11 12:05:51;;;;;;;19.63;5.50;;;27.40;99.90;;;;;;4913508;29;20234;-90
2022/06/11 12:08:25;;;;;;;19.65;5.53;;;27.20;99.90;;;;;;4914035;29;20589;-88
2022/06/11 12:13:23;;;;;;;20.50;5.90;;;27.00;99.90;;;;;;4988958;23;20322;-90
2022/06/11 12:15:55;;;;;;;18.25;5.18;;;26.90;99.90;;;;;;4963821;28;20307;-90
2022/06/11 12:18:28;;;;;;;19.55;5.00;;;26.80;99.90;;;;;;4979440;28;20244;-91
2022/06/11 12:20:59;;;;;;;15.40;4.57;;;26.90;99.90;;;;;;4976954;28;20299;-89
2022/06/11 12:23:32;;;;;;;17.80;5.50;;;26.90;99.90;;;;;;4991656;28;20516;-90
2022/06/11 12:26:04;;;;;;;15.02;5.22;;;26.90;99.90;;;;;;4990023;28;20684;-89
2022/06/11 12:28:36;;;;;;;21.92;5.30;;;26.80;99.90;;;;;;4965384;28;20240;-89
2022/06/11 12:31:06;;;;;;;21.30;5.45;;;26.60;99.90;;;;;;4950694;29;20774;-89
2022/06/11 12:33:32;;;;;;;21.20;5.05;;;26.60;99.90;;;;;;4970764;28;20212;-92
2022/06/11 12:36:10;;;;;;;17.05;5.53;;;26.60;99.90;;;;;;4962007;28;20301;-87
2022/06/11 12:38:48;;;;;;;15.38;5.13;;;26.40;99.90;;;;;;4952123;28;20205;-90
2022/06/11 12:41:30;;;;;;;20.90;4.50;;;26.60;99.90;;;;;;4951471;29;20284;-87
2022/06/11 12:44:16;;;;;;;18.08;4.85;;;26.60;99.90;;;;;;4953838;29;20209;-86
2022/06/11 12:46:50;;;;;;;26.48;6.10;;;26.40;99.90;;;;;;4957146;28;20227;-91
2022/06/11 12:49:29;;;;;;;17.85;5.50;;;26.40;99.90;;;;;;4970746;28;20588;-85
2022/06/11 12:52:11;;;;;;;17.88;4.82;;;26.60;99.90;;;;;;4971796;28;20633;-87
2022/06/11 12:54:51;;;;;;;15.60;4.95;;;26.70;99.90;;;;;;4952435;29;20201;-85
2022/06/11 12:57:27;;;;;;;20.50;5.25;;;26.90;99.90;;;;;;4952355;28;20497;-88
2022/06/11 13:00:09;;;;;;;15.30;4.78;;;26.90;99.90;;;;;;4953638;29;20228;-85
2022/06/11 13:02:48;;;;;;;15.80;5.18;;;26.80;99.90;;;;;;4949860;28;21017;-91